Time;durP1;ratioP1;P1;durP2;ratioP2;P2;SDS_P1;SDS_P2;PMS_P1;PMS_P2;Temp;Humidity;BMP_temperature;BMP_pressure;BME280_temperature;BME280_humidity;BME280_pressure;Samples;Min_cycle;Max_cycle;Signal;HPM_P1;HPM_P2
2022/09/24 00:00:30;;;;;;;8.47;7.77;;;;;14.50;98639.00;;;;16473847;28;20229;-49
2022/09/24 00:08:34;;;;;;;15.90;14.30;;;;;15.00;98621.00;;;;16460148;28;20240;-49
2022/09/24 00:16:39;;;;;;;13.50;12.30;;;;;15.30;98617.00;;;;16480143;28;20210;-49
2022/09/24 00:33:17;;;;;;;14.03;12.63;;;;;15.30;98605.00;;;;16408923;28;20286;-49
2022/09/24 00:41:21;;;;;;;11.97;10.67;;;;;15.10;98606.00;;;;16464293;28;20687;-49
2022/09/24 00:49:25;;;;;;;9.00;8.20;;;;;14.90;98611.00;;;;16457989;28;20412;-49
2022/09/24 00:57:27;;;;;;;14.33;12.00;;;;;14.90;98584.00;;;;16457773;28;20195;-49
2022/09/24 01:05:31;;;;;;;12.67;11.27;;;;;14.80;98571.00;;;;16474887;28;20235;-49
2022/09/24 01:13:55;;;;;;;14.27;12.67;;;;;14.70;98561.00;;;;16460552;28;20226;-49
2022/09/24 01:22:03;;;;;;;13.60;12.30;;;;;14.80;98567.00;;;;16465377;28;20296;-49
2022/09/24 01:30:09;;;;;;;13.77;12.67;;;;;14.90;98550.00;;;;16477215;28;20371;-49
2022/09/24 01:38:14;;;;;;;13.63;12.43;;;;;14.80;98541.00;;;;16458736;28;20218;-49
2022/09/24 01:46:19;;;;;;;14.67;12.60;;;;;14.60;98530.00;;;;16455605;28;20198;-48
2022/09/24 01:54:24;;;;;;;15.03;12.77;;;;;14.40;98525.00;;;;16453464;28;20230;-49
2022/09/24 02:02:33;;;;;;;15.70;12.67;;;;;14.50;98522.00;;;;16464481;28;20751;-49
2022/09/24 02:10:41;;;;;;;13.93;12.63;;;;;13.50;98519.00;;;;16459569;28;20249;-49
2022/09/24 02:18:47;;;;;;;10.67;9.77;;;;;13.00;98525.00;;;;16456107;28;20240;-48
2022/09/24 02:26:50;;;;;;;15.23;13.73;;;;;13.30;98525.00;;;;16451196;28;20216;-49
2022/09/24 02:35:02;;;;;;;13.60;12.37;;;;;13.30;98535.00;;;;16459682;28;20216;-49
2022/09/24 02:43:04;;;;;;;14.40;13.10;;;;;13.90;98506.00;;;;16450881;28;20231;-49
2022/09/24 02:51:08;;;;;;;15.27;13.67;;;;;14.10;98512.00;;;;16451242;28;20853;-49
2022/09/24 02:59:11;;;;;;;14.37;13.17;;;;;14.10;98513.00;;;;16472109;28;20224;-48
2022/09/24 03:07:14;;;;;;;14.93;13.63;;;;;14.20;98514.00;;;;16464456;28;20245;-49
2022/09/24 03:15:17;;;;;;;14.10;12.70;;;;;14.30;98487.00;;;;16464190;28;20218;-49
2022/09/24 03:23:21;;;;;;;14.93;13.63;;;;;14.70;98488.00;;;;16464191;28;20722;-49
2022/09/24 03:31:24;;;;;;;14.13;12.80;;;;;14.40;98480.00;;;;16470700;28;20291;-49
2022/09/24 03:39:27;;;;;;;14.13;12.87;;;;;14.40;98477.00;;;;16463013;28;20215;-49
2022/09/24 03:47:30;;;;;;;15.23;13.80;;;;;14.60;98477.00;;;;16461125;28;20214;-49
2022/09/24 03:55:33;;;;;;;16.07;14.37;;;;;14.50;98466.00;;;;16464064;28;20244;-49
2022/09/24 04:03:37;;;;;;;14.47;13.07;;;;;14.20;98461.00;;;;16459760;28;20214;-49
2022/09/24 04:11:41;;;;;;;15.00;13.47;;;;;14.30;98478.00;;;;16435110;28;20619;-49
2022/09/24 04:19:44;;;;;;;16.10;14.60;;;;;14.30;98465.00;;;;16438549;28;20324;-49
2022/09/24 04:27:52;;;;;;;16.30;14.10;;;;;14.50;98454.00;;;;16436290;28;20222;-48
2022/09/24 04:35:54;;;;;;;15.23;13.63;;;;;14.50;98464.00;;;;16444182;28;20199;-49
2022/09/24 04:43:59;;;;;;;16.23;14.53;;;;;15.10;98447.00;;;;16445793;28;20225;-49
2022/09/24 04:52:01;;;;;;;15.63;14.23;;;;;14.90;98445.00;;;;16454340;28;20300;-49
2022/09/24 05:00:09;;;;;;;16.33;14.83;;;;;15.00;98442.00;;;;16455766;28;20226;-49
2022/09/24 05:08:11;;;;;;;15.43;13.93;;;;;14.60;98444.00;;;;16442037;28;20219;-49
2022/09/24 05:16:15;;;;;;;15.77;14.17;;;;;14.50;98451.00;;;;16435826;28;20228;-49
2022/09/24 05:24:18;;;;;;;15.53;13.77;;;;;14.50;98456.00;;;;16445939;28;20222;-50
2022/09/24 05:32:22;;;;;;;15.23;14.03;;;;;15.00;98459.00;;;;16452940;28;20234;-49
2022/09/24 05:48:46;;;;;;;15.10;13.70;;;;;14.90;98477.00;;;;16436151;28;20246;-49
2022/09/24 05:56:48;;;;;;;15.83;14.43;;;;;14.70;98485.00;;;;16457558;28;20298;-49
2022/09/24 06:04:52;;;;;;;14.47;13.17;;;;;14.80;98480.00;;;;16453019;28;20214;-49
2022/09/24 06:12:55;;;;;;;14.80;13.40;;;;;14.70;98480.00;;;;16435791;28;20259;-49
2022/09/24 06:21:03;;;;;;;14.97;13.37;;;;;14.70;98487.00;;;;16432078;28;20223;-49
2022/09/24 06:29:06;;;;;;;13.40;12.23;;;;;14.90;98489.00;;;;16432608;28;20226;-49
2022/09/24 06:37:09;;;;;;;16.03;14.43;;;;;15.00;98501.00;;;;16441550;28;20198;-49
2022/09/24 06:45:13;;;;;;;14.37;13.10;;;;;15.10;98506.00;;;;16439085;28;20224;-49
2022/09/24 06:53:17;;;;;;;15.40;14.10;;;;;15.10;98511.00;;;;16443298;28;20293;-49
2022/09/24 07:01:19;;;;;;;15.03;13.73;;;;;15.30;98505.00;;;;16450485;28;20247;-49
2022/09/24 07:09:23;;;;;;;15.27;13.90;;;;;15.20;98498.00;;;;16448404;28;20301;-49
2022/09/24 07:17:26;;;;;;;14.30;13.10;;;;;15.20;98501.00;;;;16450661;28;20204;-47
2022/09/24 07:25:30;;;;;;;14.40;12.90;;;;;15.20;98517.00;;;;16456770;28;20759;-47
2022/09/24 07:33:32;;;;;;;13.87;12.73;;;;;15.20;98523.00;;;;16460428;28;20632;-48
2022/09/24 07:41:40;;;;;;;13.93;12.77;;;;;15.40;98515.00;;;;16446254;28;20226;-47
2022/09/24 07:49:43;;;;;;;12.77;11.57;;;;;15.90;98524.00;;;;16461690;28;20226;-48
2022/09/24 07:57:48;;;;;;;14.93;13.63;;;;;16.30;98530.00;;;;16469897;28;20230;-49
2022/09/24 08:05:55;;;;;;;17.17;15.53;;;;;16.50;98527.00;;;;16456042;28;20589;-48
2022/09/24 08:13:59;;;;;;;14.33;13.03;;;;;17.00;98528.00;;;;16432882;28;20858;-48
2022/09/24 08:22:04;;;;;;;13.77;12.47;;;;;17.70;98519.00;;;;16450038;28;20298;-48
2022/09/24 08:30:09;;;;;;;14.07;12.87;;;;;17.10;98543.00;;;;16446932;28;20660;-48
2022/09/24 08:38:11;;;;;;;13.27;11.93;;;;;16.90;98542.00;;;;16449364;28;20224;-48
2022/09/24 08:54:39;;;;;;;13.97;12.57;;;;;17.20;98536.00;;;;16453610;28;20238;-48
2022/09/24 09:02:52;;;;;;;14.10;12.70;;;;;18.10;98523.00;;;;16438541;28;20240;-49
2022/09/24 09:10:58;;;;;;;11.87;10.87;;;;;18.60;98525.00;;;;16446418;28;20232;-49
2022/09/24 09:19:05;;;;;;;13.87;12.47;;;;;19.00;98512.00;;;;16455241;28;20221;-49
2022/09/24 09:27:14;;;;;;;12.17;10.63;;;;;19.00;98521.00;;;;16465997;28;20208;-49
2022/09/24 09:35:20;;;;;;;10.20;9.27;;;;;19.00;98528.00;;;;16454734;28;20221;-49
2022/09/24 09:43:24;;;;;;;5.60;5.10;;;;;18.80;98530.00;;;;16448890;28;20220;-49
2022/09/24 09:51:35;;;;;;;6.93;6.27;;;;;19.20;98512.00;;;;16430869;28;20834;-49
2022/09/24 09:59:39;;;;;;;11.17;10.17;;;;;19.10;98518.00;;;;16447157;28;20248;-49
2022/09/24 10:07:46;;;;;;;12.27;10.73;;;;;19.10;98512.00;;;;16425896;28;20686;-49
2022/09/24 10:15:50;;;;;;;9.53;8.63;;;;;19.40;98509.00;;;;16424673;28;20224;-49
2022/09/24 10:23:59;;;;;;;9.40;8.50;;;;;19.50;98510.00;;;;16427956;28;20789;-50
2022/09/24 10:32:03;;;;;;;8.97;8.07;;;;;19.70;98506.00;;;;16441521;28;20315;-49
2022/09/24 10:40:14;;;;;;;7.40;6.60;;;;;19.70;98508.00;;;;16444102;28;20213;-49
2022/09/24 10:48:22;;;;;;;5.17;4.67;;;;;19.80;98512.00;;;;16419979;28;20236;-50
2022/09/24 10:56:32;;;;;;;3.93;3.63;;;;;19.30;98509.00;;;;16425903;28;20225;-49
2022/09/24 11:04:48;;;;;;;3.53;3.13;;;;;19.40;98523.00;;;;16416630;28;20220;-49
2022/09/24 11:13:01;;;;;;;4.43;4.03;;;;;18.60;98526.00;;;;16413642;28;20600;-49
2022/09/24 11:21:17;;;;;;;6.03;5.17;;;;;18.60;98528.00;;;;16424219;28;20304;-49
2022/09/24 11:29:30;;;;;;;5.63;5.13;;;;;18.70;98517.00;;;;16437712;28;20302;-48
2022/09/24 11:37:46;;;;;;;6.17;5.10;;;;;19.00;98518.00;;;;16439188;28;20208;-49
2022/09/24 11:46:01;;;;;;;8.83;5.97;;;;;18.90;98512.00;;;;16433957;28;20201;-48
2022/09/24 11:54:08;;;;;;;6.13;5.53;;;;;19.00;98505.00;;;;16439330;28;20221;-48
2022/09/24 12:02:18;;;;;;;5.93;5.40;;;;;18.90;98503.00;;;;16443259;28;20579;-49
2022/09/24 12:10:28;;;;;;;9.43;5.63;;;;;19.50;98490.00;;;;16441567;28;20213;-49
2022/09/24 12:18:35;;;;;;;6.10;5.60;;;;;20.10;98476.00;;;;16455218;28;20606;-49
2022/09/24 12:26:39;;;;;;;6.07;5.57;;;;;19.60;98468.00;;;;16457447;28;20209;-49
2022/09/24 12:34:49;;;;;;;7.63;6.80;;;;;20.00;98477.00;;;;16445402;28;20732;-49
2022/09/24 12:42:56;;;;;;;6.10;5.50;;;;;19.70;98476.00;;;;16453251;28;20247;-49
2022/09/24 12:51:01;;;;;;;6.90;6.17;;;;;20.10;98467.00;;;;16463814;28;20601;-49
2022/09/24 12:59:04;;;;;;;6.30;5.80;;;;;20.30;98456.00;;;;16458416;28;20227;-48
2022/09/24 13:07:32;;;;;;;7.10;5.77;;;;;20.70;98449.00;;;;16457645;28;20852;-49
2022/09/24 13:15:37;;;;;;;5.53;5.13;;;;;20.30;98456.00;;;;16465932;28;20705;-49
2022/09/24 13:23:48;;;;;;;7.13;6.53;;;;;20.70;98449.00;;;;16455937;28;20283;-49
2022/09/24 13:31:54;;;;;;;6.17;5.67;;;;;20.10;98452.00;;;;16459027;28;20232;-49
2022/09/24 13:40:01;;;;;;;8.20;7.43;;;;;19.90;98448.00;;;;16469205;28;20756;-49
2022/09/24 13:48:05;;;;;;;8.83;8.07;;;;;20.00;98452.00;;;;16459830;28;20207;-49
2022/09/24 13:56:14;;;;;;;9.03;7.70;;;;;19.70;98447.00;;;;16452758;28;20262;-49
2022/09/24 14:04:19;;;;;;;8.40;7.70;;;;;20.00;98440.00;;;;16455994;28;20224;-49
2022/09/24 14:12:23;;;;;;;8.97;8.07;;;;;20.10;98443.00;;;;16449715;28;20344;-49
2022/09/24 14:20:28;;;;;;;7.77;7.10;;;;;20.60;98436.00;;;;16460243;28;20709;-49
2022/09/24 14:28:34;;;;;;;9.27;8.40;;;;;20.10;98424.00;;;;16452019;28;20224;-49
2022/09/24 14:36:37;;;;;;;8.97;8.27;;;;;20.10;98430.00;;;;16452584;28;20220;-49
2022/09/24 14:44:43;;;;;;;8.60;7.80;;;;;19.90;98421.00;;;;16462383;28;20294;-49
2022/09/24 14:52:56;;;;;;;11.80;10.70;;;;;19.80;98422.00;;;;16449399;28;20247;-49
2022/09/24 15:01:01;;;;;;;10.40;9.50;;;;;20.30;98421.00;;;;16450153;28;20228;-49
2022/09/24 15:09:05;;;;;;;9.83;8.90;;;;;20.50;98419.00;;;;16450851;28;20221;-49
2022/09/24 15:17:22;;;;;;;9.47;8.67;;;;;19.90;98418.00;;;;16461193;28;20205;-49
2022/09/24 15:25:24;;;;;;;11.30;9.73;;;;;19.80;98417.00;;;;16451502;28;20231;-49
2022/09/24 15:33:28;;;;;;;11.60;10.50;;;;;20.00;98404.00;;;;16449916;28;20232;-49
2022/09/24 15:41:31;;;;;;;11.33;10.43;;;;;19.90;98405.00;;;;16451311;28;20217;-49
2022/09/24 15:49:34;;;;;;;8.23;7.40;;;;;21.00;98410.00;;;;16460758;28;20213;-49
2022/09/24 15:57:37;;;;;;;7.67;6.50;;;;;21.90;98404.00;;;;16450652;28;20275;-49
2022/09/24 16:05:41;;;;;;;7.03;6.53;;;;;21.10;98392.00;;;;16458599;28;20223;-50
2022/09/24 16:13:43;;;;;;;7.83;6.90;;;;;20.50;98402.00;;;;16466101;28;20231;-49
2022/09/24 16:21:47;;;;;;;8.63;7.83;;;;;20.70;98404.00;;;;16464028;28;20236;-49
2022/09/24 16:29:50;;;;;;;8.23;7.53;;;;;21.10;98407.00;;;;16458806;28;20229;-49
2022/09/24 16:37:54;;;;;;;8.90;8.00;;;;;20.60;98413.00;;;;16453738;28;20211;-50
2022/09/24 16:46:02;;;;;;;7.97;7.27;;;;;19.90;98416.00;;;;16448531;28;20658;-48
2022/09/24 16:54:06;;;;;;;9.10;8.20;;;;;19.50;98415.00;;;;16444210;28;20706;-49
2022/09/24 17:02:10;;;;;;;9.80;9.10;;;;;19.10;98424.00;;;;16442204;28;20213;-49
2022/09/24 17:10:14;;;;;;;10.87;9.77;;;;;19.00;98409.00;;;;16428499;28;20299;-49
2022/09/24 17:18:17;;;;;;;10.93;10.00;;;;;18.90;98417.00;;;;16455159;28;20250;-49
2022/09/24 17:26:21;;;;;;;15.23;14.03;;;;;17.60;98420.00;;;;16453113;28;20209;-50
2022/09/24 17:34:24;;;;;;;13.80;12.57;;;;;17.50;98421.00;;;;16450991;28;20294;-49
2022/09/24 17:42:28;;;;;;;14.13;12.87;;;;;17.40;98445.00;;;;16455141;28;20247;-49
2022/09/24 17:50:31;;;;;;;13.27;12.17;;;;;16.90;98456.00;;;;16461632;28;20217;-49
2022/09/24 17:58:37;;;;;;;14.93;13.57;;;;;16.70;98462.00;;;;16450239;28;20863;-49
2022/09/24 18:06:41;;;;;;;16.30;14.90;;;;;16.70;98467.00;;;;16452106;28;20196;-49
2022/09/24 18:14:44;;;;;;;13.33;12.13;;;;;16.50;98458.00;;;;16446823;28;20583;-49
2022/09/24 18:22:47;;;;;;;16.60;15.20;;;;;16.70;98466.00;;;;16448473;28;20228;-48
2022/09/24 18:31:03;;;;;;;15.57;14.07;;;;;16.90;98462.00;;;;16431524;28;20867;-49
2022/09/24 18:39:07;;;;;;;14.10;12.90;;;;;16.70;98472.00;;;;16421367;28;20308;-48
2022/09/24 18:47:13;;;;;;;16.77;15.10;;;;;17.00;98477.00;;;;16427319;28;20579;-49
2022/09/24 18:55:16;;;;;;;16.40;14.70;;;;;16.50;98477.00;;;;16425069;28;20237;-49
2022/09/24 19:03:20;;;;;;;15.70;14.30;;;;;16.40;98486.00;;;;16433463;28;20306;-48
2022/09/24 19:11:23;;;;;;;17.00;15.50;;;;;16.20;98489.00;;;;16417758;28;20609;-48
2022/09/24 19:19:27;;;;;;;17.87;16.00;;;;;16.20;98493.00;;;;16416510;28;20739;-48
2022/09/24 19:27:30;;;;;;;18.60;17.00;;;;;16.30;98471.00;;;;16411307;28;20224;-48
2022/09/24 19:35:34;;;;;;;18.93;17.27;;;;;16.30;98480.00;;;;16407038;28;20233;-48
2022/09/24 19:43:37;;;;;;;19.07;17.43;;;;;16.20;98478.00;;;;16455762;28;20216;-49
2022/09/24 19:51:41;;;;;;;18.87;17.07;;;;;16.20;98484.00;;;;16464602;28;20318;-49
2022/09/24 19:59:43;;;;;;;20.83;18.93;;;;;16.50;98477.00;;;;16460419;28;20225;-49
2022/09/24 20:07:48;;;;;;;25.87;23.23;;;;;17.00;98462.00;;;;16431141;28;20204;-49
2022/09/24 20:15:58;;;;;;;22.80;20.60;;;;;17.40;98451.00;;;;16448769;28;20255;-49
2022/09/24 20:24:02;;;;;;;26.10;21.87;;;;;17.10;98460.00;;;;16438419;28;20595;-48
2022/09/24 20:32:06;;;;;;;21.20;19.30;;;;;16.50;98463.00;;;;16445763;28;20220;-49
2022/09/24 20:40:10;;;;;;;18.77;16.97;;;;;16.60;98478.00;;;;16448037;28;20324;-49
2022/09/24 20:48:13;;;;;;;19.27;17.50;;;;;16.70;98461.00;;;;16455240;28;20220;-48
2022/09/24 20:56:17;;;;;;;22.40;20.30;;;;;17.30;98454.00;;;;16455540;28;20231;-48
2022/09/24 21:04:21;;;;;;;17.33;15.80;;;;;16.20;98461.00;;;;16457508;28;20261;-48
2022/09/24 21:12:25;;;;;;;17.00;15.53;;;;;16.40;98464.00;;;;16452997;28;20725;-48
2022/09/24 21:20:29;;;;;;;17.50;15.80;;;;;15.70;98476.00;;;;16445198;28;20227;-49
2022/09/24 21:28:33;;;;;;;16.10;14.47;;;;;15.60;98493.00;;;;16446250;28;20220;-48
2022/09/24 21:36:37;;;;;;;16.40;14.83;;;;;15.70;98494.00;;;;16454839;28;20314;-48
2022/09/24 21:44:41;;;;;;;19.37;17.63;;;;;16.10;98478.00;;;;16465732;28;20909;-49
2022/09/24 21:52:43;;;;;;;19.37;17.77;;;;;15.70;98485.00;;;;16456623;28;20306;-49
2022/09/24 22:00:47;;;;;;;20.93;19.00;;;;;15.40;98485.00;;;;16453417;28;20303;-48
2022/09/24 22:08:50;;;;;;;19.70;17.90;;;;;14.90;98488.00;;;;16441942;28;20317;-48
2022/09/24 22:16:54;;;;;;;16.50;15.00;;;;;14.80;98482.00;;;;16446754;28;20629;-48
2022/09/24 22:24:56;;;;;;;21.83;19.73;;;;;14.90;98490.00;;;;16453047;28;20228;-49
2022/09/24 22:33:00;;;;;;;18.23;16.73;;;;;14.80;98481.00;;;;16440415;28;20692;-48
2022/09/24 22:41:04;;;;;;;18.13;16.13;;;;;14.90;98489.00;;;;16426424;28;20750;-48
2022/09/24 22:49:09;;;;;;;17.90;16.23;;;;;15.00;98488.00;;;;16463508;28;20310;-49
2022/09/24 22:57:12;;;;;;;16.80;15.17;;;;;15.00;98490.00;;;;16452190;28;20238;-48
2022/09/24 23:05:16;;;;;;;19.13;17.43;;;;;15.10;98479.00;;;;16451819;28;20227;-48
2022/09/24 23:13:18;;;;;;;17.00;15.30;;;;;15.60;98472.00;;;;16454920;28;20231;-49
2022/09/24 23:21:23;;;;;;;20.53;18.73;;;;;15.40;98477.00;;;;16454582;28;20354;-48
2022/09/24 23:29:26;;;;;;;19.23;17.40;;;;;15.00;98481.00;;;;16430077;28;20614;-48
2022/09/24 23:37:30;;;;;;;17.57;15.97;;;;;15.10;98487.00;;;;16445965;28;20725;-48
2022/09/24 23:45:32;;;;;;;18.40;16.70;;;;;15.00;98474.00;;;;16448928;28;20755;-48
2022/09/24 23:53:36;;;;;;;16.47;15.07;;;;;15.30;98471.00;;;;16456330;28;20235;-48
